Exy Johnson — WDB3395 — position and weather

sailwx.info

Track history (hours):
 
Tides and Currents Weather Stations Pressure Air Temp Water Temp Dewpoint Dewpoint Depression Visibility Wind Speed Wind Dir Waves Ship Positions

Exy Johnson (United States)

Ship's website: http://www.lamitopsail.org/index.asp

Owner: Los Angeles Maritime Institute, San Pedro, CA. More information available from US FCC via Universal Licensing System and Coast Guard Vessel Documentation Center.

Last reported at 2019-Dec-06 04:31 UTC. Time now 2019-Dec-06 06:18 UTC.
Position N 33°44' W 118°17'.

Length 34 m; draft 3.7 m.

Type: Sailing vessel. MMSI: 366883970.

Date/timePositionNaut miles runAvg speedWind from/ knotsBaromVisibWave heightAir tempDewpointWater temp
2019-Dec-06 04:31N 33°44' W 118°17'0 0.0
2019-Dec-06 01:59N 33°44' W 118°17'0 0.0
2019-Dec-06 01:30N 33°44' W 118°17'0 0.0
2019-Dec-05 22:30N 33°44' W 118°17'5 1.7
2019-Dec-05 19:30N 33°39' W 118°15'0 0.5
2019-Dec-05 18:30N 33°39' W 118°15'5 4.8
2019-Dec-05 17:30N 33°44' W 118°17'0 0.0
2019-Dec-05 16:25N 33°44' W 118°17'0 0.0
2019-Dec-05 15:30N 33°44' W 118°17'0 0.0
2019-Dec-05 13:30N 33°44' W 118°17'0 0.0
2019-Dec-05 13:00N 33°44' W 118°17'0 0.0
2019-Dec-05 09:00N 33°44' W 118°17'0 0.0
2019-Dec-05 06:00N 33°44' W 118°17'0 0.0
2019-Dec-05 05:30N 33°44' W 118°17'0 0.0
2019-Dec-05 05:00N 33°44' W 118°17'0 0.0
2019-Dec-05 02:00N 33°44' W 118°17'0 0.0
2019-Dec-05 01:00N 33°44' W 118°17'0 0.0
2019-Dec-04 19:00N 33°44' W 118°17'0 0.0
2019-Dec-04 17:00N 33°44' W 118°17'0 0.0
2019-Dec-04 12:00N 33°44' W 118°17'0 0.0
2019-Dec-04 09:30N 33°44' W 118°17'0 0.0
2019-Dec-04 08:30N 33°44' W 118°17'0 0.0
2019-Dec-04 06:30N 33°44' W 118°17'0 0.0
2019-Dec-04 05:30N 33°44' W 118°17'0 0.0
2019-Dec-04 05:00N 33°44' W 118°17'0 0.0
2019-Dec-04 04:00N 33°44' W 118°17'0 0.0
2019-Dec-04 03:30N 33°44' W 118°17'0 0.0
2019-Dec-04 02:30N 33°44' W 118°17'0 0.0
2019-Dec-04 02:00N 33°44' W 118°17'0 0.1
2019-Dec-04 00:30N 33°44' W 118°16'1 0.9
2019-Dec-03 23:30N 33°43' W 118°16'1 0.5
2019-Dec-03 21:30N 33°44' W 118°17'0 0.6
2019-Dec-03 21:00N 33°44' W 118°16'1 2.2
2019-Dec-03 20:30N 33°43' W 118°16'1 2.0
2019-Dec-03 20:00N 33°42' W 118°15'3 0.9
2019-Dec-03 16:59N 33°44' W 118°17'0 0.0
2019-Dec-03 15:00N 33°44' W 118°17'0 0.0
2019-Dec-03 13:28N 33°44' W 118°17'0 0.0
2019-Dec-03 11:25N 33°44' W 118°17'0 0.0
2019-Dec-03 09:28N 33°44' W 118°17'0 0.0
2019-Dec-03 08:58N 33°44' W 118°17'0 0.0
2019-Dec-03 08:27N 33°44' W 118°17'0 0.0
2019-Dec-03 07:28N 33°44' W 118°17'0 0.0
2019-Dec-03 06:30N 33°44' W 118°17'0 0.0
2019-Dec-03 05:30N 33°44' W 118°17'0 0.0
2019-Dec-03 04:28N 33°44' W 118°17'0 0.0
2019-Dec-03 03:57N 33°44' W 118°17'0 0.0
2019-Dec-03 03:28N 33°44' W 118°17'0 0.0
2019-Dec-03 00:30N 33°44' W 118°17'0 0.0
2019-Dec-02 22:59N 33°44' W 118°17'0 0.0
2019-Dec-02 22:29N 33°44' W 118°17'0 0.0
2019-Dec-02 21:29N 33°44' W 118°17'0 0.0
2019-Dec-02 19:30N 33°44' W 118°17'0 0.0
2019-Dec-02 18:54N 33°44' W 118°17'0 0.0
2019-Dec-02 18:24N 33°44' W 118°17'0 0.0
2019-Dec-02 17:27N 33°44' W 118°17'0 0.0
2019-Dec-02 17:00N 33°44' W 118°17'0 0.0
2019-Dec-02 15:55N 33°44' W 118°17'0 0.0
2019-Dec-02 12:57N 33°44' W 118°17'0 0.0
2019-Dec-02 11:28N 33°44' W 118°17'0 0.0
2019-Dec-02 08:28N 33°44' W 118°17'0 0.0
2019-Dec-02 07:29N 33°44' W 118°17'0 0.0
2019-Dec-02 06:59N 33°44' W 118°17'0 0.0
2019-Dec-02 05:54N 33°44' W 118°17'0 0.0
2019-Dec-02 04:29N 33°44' W 118°17'0 0.0
2019-Dec-02 03:55N 33°44' W 118°17'0 0.0
2019-Dec-02 03:29N 33°44' W 118°17'0 0.0
2019-Dec-02 01:29N 33°44' W 118°17'0 0.0
2019-Dec-01 23:29N 33°44' W 118°17'0 0.0
2019-Dec-01 19:59N 33°44' W 118°17'0 0.0
2019-Dec-01 18:30N 33°44' W 118°17'0 0.0
2019-Dec-01 16:28N 33°44' W 118°17'0 0.0
2019-Dec-01 15:58N 33°44' W 118°17'0 0.0
2019-Dec-01 13:58N 33°44' W 118°17'0 0.0
2019-Dec-01 13:00N 33°44' W 118°17'0 0.0
2019-Dec-01 11:58N 33°44' W 118°17'0 0.0
2019-Dec-01 11:27N 33°44' W 118°17'0 0.0
2019-Dec-01 08:30N 33°44' W 118°17'0 0.0
2019-Dec-01 05:30N 33°44' W 118°17'0 0.0
2019-Dec-01 05:00N 33°44' W 118°17'0 0.0
2019-Dec-01 03:59N 33°44' W 118°17'0 0.0
2019-Dec-01 03:29N 33°44' W 118°17'0 0.0
2019-Dec-01 02:28N 33°44' W 118°17'0 0.0
2019-Nov-30 23:58N 33°44' W 118°17'0 0.0
2019-Nov-30 22:58N 33°44' W 118°17'0 0.0
2019-Nov-30 21:30N 33°44' W 118°17'0 0.0
2019-Nov-30 20:29N 33°44' W 118°17'0 0.0
2019-Nov-30 18:58N 33°44' W 118°17'0 0.0
2019-Nov-30 18:30N 33°44' W 118°17'0 0.0
2019-Nov-30 13:30N 33°44' W 118°17'0 0.0
2019-Nov-30 12:30N 33°44' W 118°17'0 0.0
2019-Nov-30 05:28N 33°44' W 118°17'0 0.0
2019-Nov-30 04:58N 33°44' W 118°17'0 0.0
2019-Nov-30 03:30N 33°44' W 118°17'0 0.0
2019-Nov-30 02:30N 33°44' W 118°17'0 0.0
2019-Nov-30 00:59N 33°44' W 118°17'0 0.0
2019-Nov-29 22:59N 33°44' W 118°17'0 0.0
2019-Nov-29 21:28N 33°44' W 118°17'0 0.0
2019-Nov-29 21:00N 33°44' W 118°17'0 0.0
2019-Nov-29 20:27N 33°44' W 118°17'0 0.0
2019-Nov-29 19:29N 33°44' W 118°17'0 0.0
2019-Nov-29 17:57N 33°44' W 118°17'0 0.0
2019-Nov-29 17:30N 33°44' W 118°17'0 0.0
2019-Nov-29 16:29N 33°44' W 118°17'0 0.0
2019-Nov-29 15:59N 33°44' W 118°17'0 0.0
2019-Nov-29 15:29N 33°44' W 118°17'0 0.0
2019-Nov-29 14:00N 33°44' W 118°17'0 0.0
2019-Nov-29 12:00N 33°44' W 118°17'0 0.0
2019-Nov-29 11:28N 33°44' W 118°17'0 0.0
2019-Nov-29 09:30N 33°44' W 118°17'0 0.0
2019-Nov-29 07:27N 33°44' W 118°17'0 0.0
2019-Nov-29 06:58N 33°44' W 118°17'0 0.0
2019-Nov-29 06:25N 33°44' W 118°17'0 0.0
2019-Nov-29 05:00N 33°44' W 118°17'0 0.0
2019-Nov-29 04:29N 33°44' W 118°17'0 0.0
2019-Nov-29 03:30N 33°44' W 118°17'0 0.0
2019-Nov-29 02:26N 33°44' W 118°17'0 0.0
2019-Nov-29 02:00N 33°44' W 118°17'0 0.0
2019-Nov-29 00:29N 33°44' W 118°17'0 0.0
2019-Nov-28 21:29N 33°44' W 118°17'0 0.0
2019-Nov-28 20:00N 33°44' W 118°17'0 0.0
2019-Nov-28 19:29N 33°44' W 118°17'0 0.0
2019-Nov-28 18:56N 33°44' W 118°17'0 0.0
2019-Nov-28 17:59N 33°44' W 118°17'0 0.0
2019-Nov-28 16:30N 33°44' W 118°17'0 0.0
2019-Nov-28 15:58N 33°44' W 118°17'0 0.0
2019-Nov-28 14:24N 33°44' W 118°17'0 0.0
2019-Nov-28 14:00N 33°44' W 118°17'0 0.0
2019-Nov-28 13:28N 33°44' W 118°17'0 0.0
2019-Nov-28 07:26N 33°44' W 118°17'0 0.0
2019-Nov-28 06:28N 33°44' W 118°17'0 0.0
2019-Nov-28 04:59N 33°44' W 118°17'0 0.0
2019-Nov-28 04:28N 33°44' W 118°17'0 0.0
2019-Nov-28 02:29N 33°44' W 118°17'0 0.0
2019-Nov-28 01:30N 33°44' W 118°17'0 0.0
2019-Nov-27 23:57N 33°44' W 118°17'0 0.0
2019-Nov-27 21:24N 33°44' W 118°17'0 0.0
2019-Nov-27 20:59N 33°44' W 118°17'0 0.8
2019-Nov-27 20:29N 33°44' W 118°17'0 0.0
2019-Nov-27 19:58N 33°44' W 118°17'0 0.0
2019-Nov-27 19:27N 33°44' W 118°17'0 0.0
2019-Nov-27 17:28N 33°44' W 118°17'0 0.0
2019-Nov-27 16:54N 33°44' W 118°17'0 0.0
2019-Nov-27 16:30N 33°44' W 118°17'0 0.0
2019-Nov-27 15:30N 33°44' W 118°17'0 0.0
2019-Nov-27 14:31N 33°44' W 118°17'0 0.0
2019-Nov-27 14:00N 33°44' W 118°17'0 0.0
2019-Nov-27 12:42N 33°44' W 118°17'0 0.0
2019-Nov-27 11:21N 33°44' W 118°17'0 0.0
2019-Nov-27 08:24N 33°44' W 118°17'0 0.0
2019-Nov-27 06:02N 33°44' W 118°17'0 0.0
2019-Nov-27 03:25N 33°44' W 118°17'0 0.0
2019-Nov-27 02:27N 33°44' W 118°17'0 0.0
2019-Nov-26 22:56N 33°44' W 118°17'0 0.0
2019-Nov-26 22:29N 33°44' W 118°17'0 0.0
2019-Nov-26 21:25N 33°44' W 118°17'0 0.0
2019-Nov-26 20:00N 33°44' W 118°17'0 0.0
2019-Nov-26 19:28N 33°44' W 118°17'0 0.0
2019-Nov-26 18:55N 33°44' W 118°17'0 0.0
2019-Nov-26 14:22N 33°44' W 118°17'0 0.0
2019-Nov-26 12:54N 33°44' W 118°17'0 0.0
2019-Nov-26 08:52N 33°44' W 118°17'0 0.0
2019-Nov-26 07:03N 33°44' W 118°17'0 0.0
2019-Nov-26 06:40N 33°44' W 118°17'0 0.0
2019-Nov-26 05:28N 33°44' W 118°17'  
Track history (hours):
 
Tides and Currents Weather Stations Pressure Air Temp Water Temp Dewpoint Dewpoint Depression Visibility Wind Speed Wind Dir Waves Ship Positions

Exy Johnson (United States)

Ship's website: http://www.lamitopsail.org/index.asp

Owner: Los Angeles Maritime Institute, San Pedro, CA. More information available from US FCC via Universal Licensing System and Coast Guard Vessel Documentation Center.

Last reported at 2019-Dec-06 04:31 UTC. Time now 2019-Dec-06 06:18 UTC.
Position N 33°44' W 118°17'.

Length 34 m; draft 3.7 m.

Type: Sailing vessel. MMSI: 366883970.

Date/timePositionNaut miles runAvg speedWind from/ knotsBaromVisibWave heightAir tempDewpointWater temp
2019-Dec-06 04:31N 33°44' W 118°17'0 0.0
2019-Dec-06 01:59N 33°44' W 118°17'0 0.0
2019-Dec-06 01:30N 33°44' W 118°17'0 0.0
2019-Dec-05 22:30N 33°44' W 118°17'5 1.7
2019-Dec-05 19:30N 33°39' W 118°15'0 0.5
2019-Dec-05 18:30N 33°39' W 118°15'5 4.8
2019-Dec-05 17:30N 33°44' W 118°17'0 0.0
2019-Dec-05 16:25N 33°44' W 118°17'0 0.0
2019-Dec-05 15:30N 33°44' W 118°17'0 0.0
2019-Dec-05 13:30N 33°44' W 118°17'0 0.0
2019-Dec-05 13:00N 33°44' W 118°17'0 0.0
2019-Dec-05 09:00N 33°44' W 118°17'0 0.0
2019-Dec-05 06:00N 33°44' W 118°17'0 0.0
2019-Dec-05 05:30N 33°44' W 118°17'0 0.0
2019-Dec-05 05:00N 33°44' W 118°17'0 0.0
2019-Dec-05 02:00N 33°44' W 118°17'0 0.0
2019-Dec-05 01:00N 33°44' W 118°17'0 0.0
2019-Dec-04 19:00N 33°44' W 118°17'0 0.0
2019-Dec-04 17:00N 33°44' W 118°17'0 0.0
2019-Dec-04 12:00N 33°44' W 118°17'0 0.0
2019-Dec-04 09:30N 33°44' W 118°17'0 0.0
2019-Dec-04 08:30N 33°44' W 118°17'0 0.0
2019-Dec-04 06:30N 33°44' W 118°17'0 0.0
2019-Dec-04 05:30N 33°44' W 118°17'0 0.0
2019-Dec-04 05:00N 33°44' W 118°17'0 0.0
2019-Dec-04 04:00N 33°44' W 118°17'0 0.0
2019-Dec-04 03:30N 33°44' W 118°17'0 0.0
2019-Dec-04 02:30N 33°44' W 118°17'0 0.0
2019-Dec-04 02:00N 33°44' W 118°17'0 0.1
2019-Dec-04 00:30N 33°44' W 118°16'1 0.9
2019-Dec-03 23:30N 33°43' W 118°16'1 0.5
2019-Dec-03 21:30N 33°44' W 118°17'0 0.6
2019-Dec-03 21:00N 33°44' W 118°16'1 2.2
2019-Dec-03 20:30N 33°43' W 118°16'1 2.0
2019-Dec-03 20:00N 33°42' W 118°15'3 0.9
2019-Dec-03 16:59N 33°44' W 118°17'0 0.0
2019-Dec-03 15:00N 33°44' W 118°17'0 0.0
2019-Dec-03 13:28N 33°44' W 118°17'0 0.0
2019-Dec-03 11:25N 33°44' W 118°17'0 0.0
2019-Dec-03 09:28N 33°44' W 118°17'0 0.0
2019-Dec-03 08:58N 33°44' W 118°17'0 0.0
2019-Dec-03 08:27N 33°44' W 118°17'0 0.0
2019-Dec-03 07:28N 33°44' W 118°17'0 0.0
2019-Dec-03 06:30N 33°44' W 118°17'0 0.0
2019-Dec-03 05:30N 33°44' W 118°17'0 0.0
2019-Dec-03 04:28N 33°44' W 118°17'0 0.0
2019-Dec-03 03:57N 33°44' W 118°17'0 0.0
2019-Dec-03 03:28N 33°44' W 118°17'0 0.0
2019-Dec-03 00:30N 33°44' W 118°17'0 0.0
2019-Dec-02 22:59N 33°44' W 118°17'0 0.0
2019-Dec-02 22:29N 33°44' W 118°17'0 0.0
2019-Dec-02 21:29N 33°44' W 118°17'0 0.0
2019-Dec-02 19:30N 33°44' W 118°17'0 0.0
2019-Dec-02 18:54N 33°44' W 118°17'0 0.0
2019-Dec-02 18:24N 33°44' W 118°17'0 0.0
2019-Dec-02 17:27N 33°44' W 118°17'0 0.0
2019-Dec-02 17:00N 33°44' W 118°17'0 0.0
2019-Dec-02 15:55N 33°44' W 118°17'0 0.0
2019-Dec-02 12:57N 33°44' W 118°17'0 0.0
2019-Dec-02 11:28N 33°44' W 118°17'0 0.0
2019-Dec-02 08:28N 33°44' W 118°17'0 0.0
2019-Dec-02 07:29N 33°44' W 118°17'0 0.0
2019-Dec-02 06:59N 33°44' W 118°17'0 0.0
2019-Dec-02 05:54N 33°44' W 118°17'0 0.0
2019-Dec-02 04:29N 33°44' W 118°17'0 0.0
2019-Dec-02 03:55N 33°44' W 118°17'0 0.0
2019-Dec-02 03:29N 33°44' W 118°17'0 0.0
2019-Dec-02 01:29N 33°44' W 118°17'0 0.0
2019-Dec-01 23:29N 33°44' W 118°17'0 0.0
2019-Dec-01 19:59N 33°44' W 118°17'0 0.0
2019-Dec-01 18:30N 33°44' W 118°17'0 0.0
2019-Dec-01 16:28N 33°44' W 118°17'0 0.0
2019-Dec-01 15:58N 33°44' W 118°17'0 0.0
2019-Dec-01 13:58N 33°44' W 118°17'0 0.0
2019-Dec-01 13:00N 33°44' W 118°17'0 0.0
2019-Dec-01 11:58N 33°44' W 118°17'0 0.0
2019-Dec-01 11:27N 33°44' W 118°17'0 0.0
2019-Dec-01 08:30N 33°44' W 118°17'0 0.0
2019-Dec-01 05:30N 33°44' W 118°17'0 0.0
2019-Dec-01 05:00N 33°44' W 118°17'0 0.0
2019-Dec-01 03:59N 33°44' W 118°17'0 0.0
2019-Dec-01 03:29N 33°44' W 118°17'0 0.0
2019-Dec-01 02:28N 33°44' W 118°17'0 0.0
2019-Nov-30 23:58N 33°44' W 118°17'0 0.0
2019-Nov-30 22:58N 33°44' W 118°17'0 0.0
2019-Nov-30 21:30N 33°44' W 118°17'0 0.0
2019-Nov-30 20:29N 33°44' W 118°17'0 0.0
2019-Nov-30 18:58N 33°44' W 118°17'0 0.0
2019-Nov-30 18:30N 33°44' W 118°17'0 0.0
2019-Nov-30 13:30N 33°44' W 118°17'0 0.0
2019-Nov-30 12:30N 33°44' W 118°17'0 0.0
2019-Nov-30 05:28N 33°44' W 118°17'0 0.0
2019-Nov-30 04:58N 33°44' W 118°17'0 0.0
2019-Nov-30 03:30N 33°44' W 118°17'0 0.0
2019-Nov-30 02:30N 33°44' W 118°17'0 0.0
2019-Nov-30 00:59N 33°44' W 118°17'0 0.0
2019-Nov-29 22:59N 33°44' W 118°17'0 0.0
2019-Nov-29 21:28N 33°44' W 118°17'0 0.0
2019-Nov-29 21:00N 33°44' W 118°17'0 0.0
2019-Nov-29 20:27N 33°44' W 118°17'0 0.0
2019-Nov-29 19:29N 33°44' W 118°17'0 0.0
2019-Nov-29 17:57N 33°44' W 118°17'0 0.0
2019-Nov-29 17:30N 33°44' W 118°17'0 0.0
2019-Nov-29 16:29N 33°44' W 118°17'0 0.0
2019-Nov-29 15:59N 33°44' W 118°17'0 0.0
2019-Nov-29 15:29N 33°44' W 118°17'0 0.0
2019-Nov-29 14:00N 33°44' W 118°17'0 0.0
2019-Nov-29 12:00N 33°44' W 118°17'0 0.0
2019-Nov-29 11:28N 33°44' W 118°17'0 0.0
2019-Nov-29 09:30N 33°44' W 118°17'0 0.0
2019-Nov-29 07:27N 33°44' W 118°17'0 0.0
2019-Nov-29 06:58N 33°44' W 118°17'0 0.0
2019-Nov-29 06:25N 33°44' W 118°17'0 0.0
2019-Nov-29 05:00N 33°44' W 118°17'0 0.0
2019-Nov-29 04:29N 33°44' W 118°17'0 0.0
2019-Nov-29 03:30N 33°44' W 118°17'0 0.0
2019-Nov-29 02:26N 33°44' W 118°17'0 0.0
2019-Nov-29 02:00N 33°44' W 118°17'0 0.0
2019-Nov-29 00:29N 33°44' W 118°17'0 0.0
2019-Nov-28 21:29N 33°44' W 118°17'0 0.0
2019-Nov-28 20:00N 33°44' W 118°17'0 0.0
2019-Nov-28 19:29N 33°44' W 118°17'0 0.0
2019-Nov-28 18:56N 33°44' W 118°17'0 0.0
2019-Nov-28 17:59N 33°44' W 118°17'0 0.0
2019-Nov-28 16:30N 33°44' W 118°17'0 0.0
2019-Nov-28 15:58N 33°44' W 118°17'0 0.0
2019-Nov-28 14:24N 33°44' W 118°17'0 0.0
2019-Nov-28 14:00N 33°44' W 118°17'0 0.0
2019-Nov-28 13:28N 33°44' W 118°17'0 0.0
2019-Nov-28 07:26N 33°44' W 118°17'0 0.0
2019-Nov-28 06:28N 33°44' W 118°17'0 0.0
2019-Nov-28 04:59N 33°44' W 118°17'0 0.0
2019-Nov-28 04:28N 33°44' W 118°17'0 0.0
2019-Nov-28 02:29N 33°44' W 118°17'0 0.0
2019-Nov-28 01:30N 33°44' W 118°17'0 0.0
2019-Nov-27 23:57N 33°44' W 118°17'0 0.0
2019-Nov-27 21:24N 33°44' W 118°17'0 0.0
2019-Nov-27 20:59N 33°44' W 118°17'0 0.8
2019-Nov-27 20:29N 33°44' W 118°17'0 0.0
2019-Nov-27 19:58N 33°44' W 118°17'0 0.0
2019-Nov-27 19:27N 33°44' W 118°17'0 0.0
2019-Nov-27 17:28N 33°44' W 118°17'0 0.0
2019-Nov-27 16:54N 33°44' W 118°17'0 0.0
2019-Nov-27 16:30N 33°44' W 118°17'0 0.0
2019-Nov-27 15:30N 33°44' W 118°17'0 0.0
2019-Nov-27 14:31N 33°44' W 118°17'0 0.0
2019-Nov-27 14:00N 33°44' W 118°17'0 0.0
2019-Nov-27 12:42N 33°44' W 118°17'0 0.0
2019-Nov-27 11:21N 33°44' W 118°17'0 0.0
2019-Nov-27 08:24N 33°44' W 118°17'0 0.0
2019-Nov-27 06:02N 33°44' W 118°17'0 0.0
2019-Nov-27 03:25N 33°44' W 118°17'0 0.0
2019-Nov-27 02:27N 33°44' W 118°17'0 0.0
2019-Nov-26 22:56N 33°44' W 118°17'0 0.0
2019-Nov-26 22:29N 33°44' W 118°17'0 0.0
2019-Nov-26 21:25N 33°44' W 118°17'0 0.0
2019-Nov-26 20:00N 33°44' W 118°17'0 0.0
2019-Nov-26 19:28N 33°44' W 118°17'0 0.0
2019-Nov-26 18:55N 33°44' W 118°17'0 0.0
2019-Nov-26 14:22N 33°44' W 118°17'0 0.0
2019-Nov-26 12:54N 33°44' W 118°17'0 0.0
2019-Nov-26 08:52N 33°44' W 118°17'0 0.0
2019-Nov-26 07:03N 33°44' W 118°17'0 0.0
2019-Nov-26 06:40N 33°44' W 118°17'0 0.0
2019-Nov-26 05:28N 33°44' W 118°17'  

Dump ship's entire track history